createdAt,value
2019-04-23T00:02:30.245Z,1.00
2019-04-23T00:04:54.197Z,0.90
2019-04-23T00:07:39.380Z,0.80
2019-04-23T00:09:57.152Z,1.07
2019-04-23T00:12:34.363Z,0.83
2019-04-23T00:15:04.399Z,1.30
2019-04-23T00:17:26.951Z,1.17
2019-04-23T00:19:48.538Z,1.17
2019-04-23T00:22:20.478Z,1.07
2019-04-23T00:29:53.121Z,1.20
2019-04-23T00:34:47.390Z,1.10
2019-04-23T00:37:23.799Z,0.97
2019-04-23T00:39:41.039Z,1.20
2019-04-23T00:42:15.451Z,1.10
2019-04-23T00:44:40.362Z,1.13
2019-04-23T00:47:01.257Z,1.10
2019-04-23T00:49:32.536Z,1.20
2019-04-23T00:52:07.533Z,1.17
2019-04-23T00:54:34.477Z,1.40
2019-04-23T00:57:02.567Z,1.10
2019-04-23T00:59:26.994Z,1.30
2019-04-23T01:01:56.658Z,1.10
2019-04-23T01:04:27.519Z,1.17
2019-04-23T01:06:52.841Z,1.40
2019-04-23T01:09:22.165Z,1.30
2019-04-23T01:11:49.764Z,1.10
2019-04-23T01:14:24.550Z,1.17
2019-04-23T01:16:42.552Z,1.20
2019-04-23T01:19:20.063Z,1.23
2019-04-23T01:21:26.565Z,0.90
2019-04-23T01:24:06.359Z,1.33
2019-04-23T01:27:22.343Z,1.30
2019-04-23T01:29:42.783Z,1.13
2019-04-23T01:32:14.163Z,1.30
2019-04-23T01:34:42.455Z,1.30
2019-04-23T01:37:15.976Z,1.40
2019-04-23T01:39:27.766Z,1.30
2019-04-23T01:42:16.567Z,1.53
2019-04-23T01:44:38.683Z,1.30
2019-04-23T01:47:01.138Z,1.30
2019-04-23T01:52:04.667Z,1.30
2019-04-23T01:54:26.057Z,1.60
2019-04-23T01:56:50.903Z,1.33
2019-04-23T01:59:38.675Z,1.47
2019-04-23T02:01:52.034Z,1.43
2019-04-23T02:04:24.408Z,1.33
2019-04-23T02:06:45.474Z,1.53
2019-04-23T02:09:13.830Z,1.80
2019-04-23T02:11:48.398Z,1.37
2019-04-23T02:19:11.368Z,1.30
2019-04-23T02:21:47.523Z,1.80
2019-04-23T02:24:12.679Z,1.40
2019-04-23T02:29:29.834Z,1.67
2019-04-23T02:34:23.587Z,1.63
2019-04-23T02:36:53.613Z,1.80
2019-04-23T02:39:09.520Z,1.70
2019-04-23T02:41:45.747Z,1.60
2019-04-23T02:44:14.651Z,1.60
2019-04-23T02:46:22.717Z,1.37
2019-04-23T02:49:07.164Z,1.50
2019-04-23T02:56:48.673Z,1.40
2019-04-23T02:59:05.720Z,1.57
2019-04-23T03:01:27.488Z,1.30
2019-04-23T03:06:20.792Z,1.60
2019-04-23T03:08:46.627Z,1.63
2019-04-23T03:19:02.549Z,1.90
2019-04-23T03:21:33.818Z,1.87
2019-04-23T03:24:20.825Z,1.80
2019-04-23T03:29:16.246Z,1.83
2019-04-23T03:34:02.191Z,1.60
2019-04-23T03:36:18.120Z,1.77
2019-04-23T03:43:46.994Z,2.67
2019-04-23T03:48:55.053Z,1.60
2019-04-23T03:56:23.787Z,2.10
2019-04-23T03:58:49.372Z,2.23
2019-04-23T04:01:23.672Z,1.97
2019-04-23T04:08:35.332Z,2.00
2019-04-23T04:11:10.996Z,1.80
2019-04-23T04:13:42.426Z,1.80
2019-04-23T04:16:00.909Z,2.20
2019-04-23T04:18:38.665Z,1.90
2019-04-23T04:23:33.322Z,1.97
2019-04-23T04:25:56.901Z,2.43
2019-04-23T04:28:31.087Z,2.03
2019-04-23T04:30:49.266Z,1.90
2019-04-23T04:33:47.226Z,1.67
2019-04-23T04:40:55.296Z,1.93
2019-04-23T04:46:10.400Z,1.77
2019-04-23T04:48:18.052Z,2.20
2019-04-23T04:50:57.515Z,2.30
2019-04-23T04:53:47.429Z,2.17
2019-04-23T04:55:50.006Z,2.07
2019-04-23T04:58:12.358Z,2.10
2019-04-23T05:00:56.734Z,2.40
2019-04-23T05:08:12.931Z,2.53
2019-04-23T05:13:22.357Z,2.27
2019-04-23T05:15:37.265Z,2.50
2019-04-23T05:26:14.004Z,2.37
2019-04-23T05:28:44.570Z,2.30
2019-04-23T05:31:05.736Z,2.40
2019-04-23T05:33:38.410Z,2.50
2019-04-23T05:41:10.076Z,2.50
2019-04-23T05:43:35.780Z,2.10
2019-04-23T05:46:04.470Z,2.60
2019-04-23T05:48:32.014Z,2.50
2019-04-23T05:53:27.300Z,2.40
2019-04-23T05:55:55.379Z,2.87
2019-04-23T05:58:23.823Z,2.50
2019-04-23T06:00:59.616Z,2.27
2019-04-23T06:03:22.606Z,2.30
2019-04-23T06:05:54.293Z,2.40
2019-04-23T06:08:25.332Z,2.50
2019-04-23T06:13:20.655Z,2.63
2019-04-23T06:15:43.801Z,2.80
2019-04-23T06:18:17.126Z,2.83
2019-04-23T06:20:54.293Z,2.70
2019-04-23T06:23:17.812Z,2.70
2019-04-23T06:25:57.213Z,2.53
2019-04-23T06:30:50.477Z,2.97
2019-04-23T06:33:11.584Z,2.97
2019-04-23T06:35:41.992Z,2.63
2019-04-23T06:38:26.137Z,2.63
2019-04-23T06:43:16.583Z,2.80
2019-04-23T06:48:09.019Z,2.67
2019-04-23T06:50:35.483Z,2.67
2019-04-23T06:52:58.883Z,2.70
2019-04-23T06:55:35.741Z,2.77
2019-04-23T06:58:08.429Z,2.70
2019-04-23T07:03:07.697Z,3.03
2019-04-23T07:06:05.011Z,2.87
2019-04-23T07:08:38.540Z,2.90
2019-04-23T07:10:54.359Z,2.80
2019-04-23T07:13:21.206Z,3.23
2019-04-23T07:18:18.250Z,2.80
2019-04-23T07:20:40.334Z,3.00
2019-04-23T07:23:24.590Z,2.90
2019-04-23T07:25:42.477Z,3.20
2019-04-23T07:28:13.467Z,2.93
2019-04-23T07:30:39.880Z,2.60
2019-04-23T07:33:11.250Z,3.20
2019-04-23T07:35:43.742Z,2.97
2019-04-23T07:38:33.609Z,3.00
2019-04-23T07:41:09.677Z,3.03
2019-04-23T07:43:39.773Z,2.90
2019-04-23T07:46:12.260Z,2.97
2019-04-23T07:48:37.145Z,2.80
2019-04-23T07:51:10.573Z,3.30
2019-04-23T07:53:44.327Z,3.37
2019-04-23T07:56:07.304Z,3.33
2019-04-23T07:58:33.243Z,3.10
2019-04-23T08:03:30.747Z,3.20
2019-04-23T08:05:55.346Z,3.30
2019-04-23T08:16:18.294Z,3.17
2019-04-23T08:18:41.874Z,3.17
2019-04-23T08:21:06.653Z,3.53
2019-04-23T08:23:47.241Z,3.27
2019-04-23T08:26:34.773Z,3.30
2019-04-23T08:29:04.106Z,2.87
2019-04-23T08:34:11.956Z,3.53
2019-04-23T08:36:27.261Z,3.70
2019-04-23T08:38:57.529Z,4.10
2019-04-23T08:43:59.440Z,4.10
2019-04-23T08:46:43.376Z,3.70
2019-04-23T08:49:03.353Z,4.90
2019-04-23T08:53:56.914Z,4.20
2019-04-23T08:58:53.592Z,4.40
2019-04-23T09:01:24.823Z,4.37
2019-04-23T09:03:46.064Z,4.70
2019-04-23T09:06:15.768Z,5.20
2019-04-23T09:08:45.817Z,4.47
2019-04-23T09:11:30.087Z,4.87
2019-04-23T09:13:53.234Z,4.80
2019-04-23T09:16:09.037Z,4.80
2019-04-23T09:18:41.921Z,5.00
2019-04-23T09:21:10.628Z,5.10
2019-04-23T09:23:42.089Z,4.80
2019-04-23T09:26:02.407Z,4.77
2019-04-23T09:28:41.693Z,4.50
2019-04-23T09:31:11.693Z,5.07
2019-04-23T09:36:30.698Z,4.90
2019-04-23T09:39:04.545Z,4.23
2019-04-23T09:41:27.675Z,4.50
2019-04-23T09:46:40.519Z,4.87
2019-04-23T09:49:14.621Z,4.20
2019-04-23T09:51:42.172Z,4.67
2019-04-23T09:54:09.748Z,4.73
2019-04-23T09:56:37.653Z,4.60
2019-04-23T09:59:08.836Z,4.67
2019-04-23T10:01:39.284Z,4.45
2019-04-23T10:03:47.553Z,4.33
2019-04-23T10:06:12.360Z,4.22
2019-04-23T10:08:39.535Z,3.92
2019-04-23T10:11:03.057Z,4.70
2019-04-23T10:13:29.706Z,5.00
2019-04-23T10:15:58.045Z,4.50
2019-04-23T10:18:24.646Z,3.83
2019-04-23T10:20:52.303Z,4.10
2019-04-23T10:23:19.099Z,4.35
2019-04-23T10:25:45.801Z,4.47
2019-04-23T10:28:31.765Z,4.15
2019-04-23T10:30:58.711Z,3.87
2019-04-23T10:33:25.494Z,3.95
2019-04-23T10:36:00.359Z,4.03
2019-04-23T10:38:22.149Z,3.95
2019-04-23T10:40:50.217Z,4.17
2019-04-23T10:43:17.300Z,4.03
2019-04-23T10:46:07.920Z,4.25
2019-04-23T10:49:17.822Z,4.08
2019-04-23T10:51:33.796Z,3.90
2019-04-23T10:54:19.551Z,3.65
2019-04-23T10:59:06.504Z,3.90
2019-04-23T11:01:37.649Z,4.37
2019-04-23T11:04:21.362Z,4.10
2019-04-23T11:06:44.338Z,3.67
2019-04-23T11:09:03.854Z,4.05
2019-04-23T11:11:50.003Z,4.30
2019-04-23T11:14:15.322Z,3.98
2019-04-23T11:16:52.289Z,4.40
2019-04-23T11:19:04.558Z,3.87
2019-04-23T11:21:34.567Z,3.95
2019-04-23T11:24:18.593Z,4.15
2019-04-23T11:29:01.957Z,4.55
2019-04-23T11:33:59.601Z,4.22
2019-04-23T11:41:25.147Z,4.15
2019-04-23T11:43:46.430Z,3.60
2019-04-23T11:46:37.041Z,4.00
2019-04-23T11:49:19.639Z,4.50
2019-04-23T11:56:25.855Z,4.63
2019-04-23T11:58:42.950Z,4.58
2019-04-23T12:01:47.752Z,5.12
2019-04-23T12:04:14.751Z,4.37
2019-04-23T12:09:25.631Z,4.37
2019-04-23T12:14:32.870Z,4.07
2019-04-23T12:22:01.110Z,4.27
2019-04-23T12:24:42.091Z,4.80
2019-04-23T12:27:00.420Z,4.77
2019-04-23T12:29:27.103Z,3.93
2019-04-23T12:32:24.153Z,5.47
2019-04-23T12:34:49.507Z,4.67
2019-04-23T12:37:09.518Z,4.40
2019-04-23T12:39:41.851Z,4.03
2019-04-23T12:42:21.750Z,4.30
2019-04-23T12:44:38.602Z,4.03
2019-04-23T12:47:19.512Z,3.93
2019-04-23T12:52:02.373Z,4.50
2019-04-23T12:54:52.218Z,4.03
2019-04-23T12:59:36.424Z,4.13
2019-04-23T13:02:08.130Z,4.77
2019-04-23T13:04:32.264Z,4.53
2019-04-23T13:06:57.998Z,4.60
2019-04-23T13:12:13.562Z,4.17
2019-04-23T13:14:41.545Z,4.62
2019-04-23T13:17:16.020Z,4.30
2019-04-23T13:19:44.818Z,4.50
2019-04-23T13:22:19.547Z,3.83
2019-04-23T13:24:46.648Z,4.50
2019-04-23T13:27:29.010Z,4.37
2019-04-23T13:32:21.076Z,4.10
2019-04-23T13:35:04.123Z,4.70
2019-04-23T13:37:20.187Z,4.28
2019-04-23T13:39:45.421Z,4.12
2019-04-23T13:42:23.170Z,4.90
2019-04-23T13:44:46.652Z,4.45
2019-04-23T13:47:23.818Z,4.50
2019-04-23T13:49:43.495Z,4.08
2019-04-23T13:52:28.602Z,3.80
2019-04-23T13:54:58.064Z,4.50
2019-04-23T13:59:45.056Z,3.50
2019-04-23T14:02:17.444Z,3.85
2019-04-23T14:05:04.831Z,4.03
2019-04-23T14:07:25.198Z,3.73
2019-04-23T14:09:54.508Z,3.90
2019-04-23T14:12:18.206Z,3.80
2019-04-23T14:17:29.230Z,3.50
2019-04-23T14:19:47.639Z,3.80
2019-04-23T14:22:31.281Z,4.20
2019-04-23T14:24:54.366Z,3.33
2019-04-23T14:27:18.131Z,4.10
2019-04-23T14:29:48.141Z,3.70
2019-04-23T14:32:17.164Z,3.77
2019-04-23T14:34:43.861Z,3.30
2019-04-23T14:37:04.253Z,4.20
2019-04-23T14:39:37.191Z,3.37
2019-04-23T14:42:06.618Z,3.57
2019-04-23T14:44:51.302Z,3.50
2019-04-23T14:49:59.219Z,3.33
2019-04-23T14:52:27.531Z,3.60
2019-04-23T14:55:35.087Z,3.43
2019-04-23T14:57:29.991Z,3.43
2019-04-23T14:59:57.400Z,4.17
2019-04-23T15:02:22.842Z,3.90
2019-04-23T15:04:51.775Z,3.07
2019-04-23T15:07:16.918Z,3.43
2019-04-23T15:09:52.802Z,3.00
2019-04-23T15:12:16.048Z,3.43
2019-04-23T15:14:48.727Z,2.90
2019-04-23T15:17:07.610Z,2.73
2019-04-23T15:29:19.626Z,4.10
2019-04-23T15:32:09.941Z,3.70
2019-04-23T15:34:49.004Z,3.10
2019-04-23T15:37:15.575Z,3.33
2019-04-23T15:39:31.539Z,2.90
2019-04-23T15:42:07.698Z,2.83
2019-04-23T15:44:40.945Z,2.87
2019-04-23T15:47:01.963Z,3.20
2019-04-23T15:57:05.855Z,2.80
2019-04-23T16:03:49.081Z,3.40
2019-04-23T16:06:19.666Z,3.20
2019-04-23T16:09:08.114Z,3.10
2019-04-23T16:19:17.690Z,3.00
2019-04-23T16:21:48.319Z,3.10
2019-04-23T16:24:13.197Z,3.20
2019-04-23T16:26:39.144Z,3.50
2019-04-23T16:31:40.253Z,2.97
2019-04-23T16:37:02.149Z,3.30
2019-04-23T16:39:24.205Z,3.07
2019-04-23T16:42:05.747Z,3.53
2019-04-23T16:44:36.649Z,2.93
2019-04-23T16:47:00.491Z,3.20
2019-04-23T16:51:45.530Z,3.20
2019-04-23T16:54:26.548Z,3.10
2019-04-23T16:57:15.256Z,3.07
2019-04-23T17:01:46.545Z,3.00
2019-04-23T17:04:19.476Z,3.00
2019-04-23T17:06:48.959Z,3.23
2019-04-23T17:11:34.237Z,3.00
2019-04-23T17:14:09.778Z,2.80
2019-04-23T17:16:34.034Z,3.00
2019-04-23T17:21:31.761Z,3.27
2019-04-23T17:24:07.965Z,3.27
2019-04-23T17:29:00.391Z,3.23
2019-04-23T17:33:58.612Z,3.57
2019-04-23T17:36:24.842Z,3.20
2019-04-23T17:44:18.136Z,3.27
2019-04-23T17:46:34.208Z,3.30
2019-04-23T17:51:44.376Z,3.00
2019-04-23T17:54:24.881Z,3.57
2019-04-23T17:56:47.698Z,3.03
2019-04-23T18:09:09.242Z,4.07
2019-04-23T18:11:44.841Z,4.30
2019-04-23T18:16:36.956Z,3.40
2019-04-23T18:19:00.763Z,4.47
2019-04-23T18:29:31.531Z,2.93
2019-04-23T18:32:13.035Z,3.33
2019-04-23T18:34:56.885Z,3.37
2019-04-23T18:37:07.744Z,3.60
2019-04-23T18:39:42.126Z,3.10
2019-04-23T18:42:10.266Z,3.03
2019-04-23T18:44:38.316Z,3.23
2019-04-23T18:47:04.374Z,3.10
2019-04-23T18:49:34.633Z,3.70
2019-04-23T18:51:58.061Z,2.97
2019-04-23T18:54:29.653Z,3.20
2019-04-23T18:57:02.017Z,3.13
2019-04-23T18:59:30.252Z,3.43
2019-04-23T19:02:02.868Z,3.60
2019-04-23T19:04:45.590Z,2.97
2019-04-23T19:06:44.163Z,3.30
2019-04-23T19:09:49.220Z,3.37
2019-04-23T19:19:46.449Z,3.13
2019-04-23T19:22:20.737Z,2.97
2019-04-23T19:29:46.331Z,3.20
2019-04-23T19:32:06.740Z,3.37
2019-04-23T19:34:35.312Z,3.37
2019-04-23T19:39:29.481Z,3.43
2019-04-23T19:42:03.721Z,5.03
2019-04-23T19:44:34.556Z,5.77
2019-04-23T19:47:09.526Z,6.20
2019-04-23T19:49:31.602Z,5.40
2019-04-23T19:51:53.308Z,5.10
2019-04-23T19:54:25.979Z,4.73
2019-04-23T19:59:14.954Z,3.87
2019-04-23T20:01:53.239Z,3.93
2019-04-23T20:04:28.739Z,4.47
2019-04-23T20:11:42.533Z,4.43
2019-04-23T20:14:02.393Z,4.50
2019-04-23T20:21:36.492Z,3.67
2019-04-23T20:24:08.593Z,3.53
2019-04-23T20:26:23.377Z,3.60
2019-04-23T20:29:31.922Z,3.47
2019-04-23T20:34:28.519Z,3.40
2019-04-23T20:36:53.211Z,3.83
2019-04-23T20:39:26.701Z,3.53
2019-04-23T20:42:05.239Z,4.00
2019-04-23T20:44:35.125Z,3.70
2019-04-23T20:47:00.277Z,4.00
2019-04-23T20:49:28.256Z,3.93
2019-04-23T20:52:00.729Z,3.47
2019-04-23T20:54:18.598Z,3.80
2019-04-23T20:57:01.280Z,3.33
2019-04-23T20:59:32.010Z,4.03
2019-04-23T21:02:15.154Z,3.70
2019-04-23T21:04:49.546Z,3.77
2019-04-23T21:07:09.979Z,4.07
2019-04-23T21:09:53.066Z,3.70
2019-04-23T21:14:52.739Z,3.83
2019-04-23T21:17:11.371Z,3.60
2019-04-23T21:19:39.415Z,3.53
2019-04-23T21:22:11.262Z,3.43
2019-04-23T21:24:35.035Z,3.60
2019-04-23T21:27:31.906Z,3.87
2019-04-23T21:32:27.294Z,3.20
2019-04-23T21:34:56.182Z,3.23
2019-04-23T21:37:13.708Z,3.40
2019-04-23T21:43:20.720Z,4.03
2019-04-23T21:45:20.498Z,3.53
2019-04-23T21:47:58.357Z,3.80
2019-04-23T21:52:40.406Z,3.30
2019-04-23T21:55:02.380Z,3.63
2019-04-23T21:57:44.264Z,3.80
2019-04-23T21:59:59.185Z,4.13
2019-04-23T22:02:38.340Z,3.80
2019-04-23T22:05:06.190Z,3.73
2019-04-23T22:07:41.524Z,4.27
2019-04-23T22:10:00.427Z,3.70
2019-04-23T22:12:23.152Z,3.80
2019-04-23T22:15:06.867Z,4.03
2019-04-23T22:17:25.993Z,4.20
2019-04-23T22:22:16.293Z,4.17
2019-04-23T22:24:48.570Z,3.77
2019-04-23T22:27:13.244Z,3.73
2019-04-23T22:29:41.895Z,3.60
2019-04-23T22:32:04.424Z,3.53
2019-04-23T22:37:11.178Z,3.80
2019-04-23T22:39:39.953Z,3.60
2019-04-23T22:44:56.167Z,3.70
2019-04-23T22:47:19.286Z,3.73
2019-04-23T22:49:41.134Z,3.60
2019-04-23T22:54:34.566Z,3.97
2019-04-23T22:57:03.262Z,3.40
2019-04-23T22:59:32.884Z,3.27
2019-04-23T23:02:21.625Z,4.00
2019-04-23T23:04:40.115Z,3.60
2019-04-23T23:07:02.761Z,3.97
2019-04-23T23:09:37.942Z,3.80
2019-04-23T23:17:18.484Z,4.00
2019-04-23T23:19:29.887Z,3.83
2019-04-23T23:24:18.262Z,3.83
2019-04-23T23:26:51.887Z,3.90
2019-04-23T23:29:13.532Z,3.77
2019-04-23T23:31:44.065Z,3.47
2019-04-23T23:36:51.464Z,3.83
2019-04-23T23:39:21.161Z,3.70
2019-04-23T23:41:46.922Z,3.87
2019-04-23T23:46:35.539Z,4.53
2019-04-23T23:49:03.985Z,3.67
2019-04-23T23:51:29.125Z,3.23
2019-04-23T23:54:02.287Z,3.33
2019-04-23T23:56:22.316Z,3.33
2019-04-23T23:59:03.972Z,3.90
